sensor_id;sensor_type;location;lat;lon;timestamp;P1;durP1;ratioP1;P2;durP2;ratioP2
12407;SDS011;6268;48.188;17.134;2023-07-24T00:01:27;6.63;;;6.03;;
12407;SDS011;6268;48.188;17.134;2023-07-24T00:04:49;6.00;;;5.47;;
12407;SDS011;6268;48.188;17.134;2023-07-24T00:08:10;5.68;;;5.18;;
12407;SDS011;6268;48.188;17.134;2023-07-24T00:11:32;6.28;;;5.78;;
12407;SDS011;6268;48.188;17.134;2023-07-24T00:14:53;7.07;;;6.00;;
12407;SDS011;6268;48.188;17.134;2023-07-24T00:18:14;7.43;;;6.00;;
12407;SDS011;6268;48.188;17.134;2023-07-24T00:21:37;6.78;;;6.15;;
12407;SDS011;6268;48.188;17.134;2023-07-24T00:24:58;6.15;;;5.57;;
12407;SDS011;6268;48.188;17.134;2023-07-24T00:28:19;6.55;;;5.95;;
12407;SDS011;6268;48.188;17.134;2023-07-24T00:31:40;8.60;;;6.25;;
12407;SDS011;6268;48.188;17.134;2023-07-24T00:35:02;5.80;;;5.30;;
12407;SDS011;6268;48.188;17.134;2023-07-24T00:38:25;6.38;;;5.88;;
12407;SDS011;6268;48.188;17.134;2023-07-24T00:41:46;6.45;;;5.93;;
12407;SDS011;6268;48.188;17.134;2023-07-24T00:45:08;6.70;;;5.80;;
12407;SDS011;6268;48.188;17.134;2023-07-24T00:48:30;6.43;;;5.82;;
12407;SDS011;6268;48.188;17.134;2023-07-24T00:51:51;6.75;;;6.10;;
12407;SDS011;6268;48.188;17.134;2023-07-24T00:55:15;6.75;;;6.07;;
12407;SDS011;6268;48.188;17.134;2023-07-24T00:58:37;6.35;;;5.85;;
12407;SDS011;6268;48.188;17.134;2023-07-24T01:02:00;7.20;;;6.10;;
12407;SDS011;6268;48.188;17.134;2023-07-24T01:05:22;6.68;;;5.93;;
12407;SDS011;6268;48.188;17.134;2023-07-24T01:08:45;8.02;;;6.00;;
12407;SDS011;6268;48.188;17.134;2023-07-24T01:12:10;6.82;;;6.15;;
12407;SDS011;6268;48.188;17.134;2023-07-24T01:15:44;8.02;;;5.75;;
12407;SDS011;6268;48.188;17.134;2023-07-24T01:19:11;7.20;;;6.53;;
12407;SDS011;6268;48.188;17.134;2023-07-24T01:22:39;6.78;;;6.20;;
12407;SDS011;6268;48.188;17.134;2023-07-24T01:26:16;6.57;;;6.07;;
12407;SDS011;6268;48.188;17.134;2023-07-24T01:29:37;6.75;;;6.13;;
12407;SDS011;6268;48.188;17.134;2023-07-24T01:32:58;6.32;;;5.78;;
12407;SDS011;6268;48.188;17.134;2023-07-24T01:36:20;6.47;;;5.65;;
12407;SDS011;6268;48.188;17.134;2023-07-24T01:39:41;6.60;;;6.00;;
12407;SDS011;6268;48.188;17.134;2023-07-24T01:43:06;7.63;;;5.70;;
12407;SDS011;6268;48.188;17.134;2023-07-24T01:46:27;5.90;;;5.40;;
12407;SDS011;6268;48.188;17.134;2023-07-24T01:49:49;6.72;;;6.10;;
12407;SDS011;6268;48.188;17.134;2023-07-24T01:53:10;6.63;;;6.03;;
12407;SDS011;6268;48.188;17.134;2023-07-24T01:56:33;7.47;;;5.70;;
12407;SDS011;6268;48.188;17.134;2023-07-24T01:59:56;6.47;;;5.88;;
12407;SDS011;6268;48.188;17.134;2023-07-24T02:03:17;6.55;;;5.95;;
12407;SDS011;6268;48.188;17.134;2023-07-24T02:06:38;6.65;;;6.15;;
12407;SDS011;6268;48.188;17.134;2023-07-24T02:10:00;6.65;;;6.15;;
12407;SDS011;6268;48.188;17.134;2023-07-24T02:13:21;6.93;;;6.30;;
12407;SDS011;6268;48.188;17.134;2023-07-24T02:16:44;8.23;;;6.32;;
12407;SDS011;6268;48.188;17.134;2023-07-24T02:20:06;6.80;;;6.20;;
12407;SDS011;6268;48.188;17.134;2023-07-24T02:23:27;6.93;;;6.30;;
12407;SDS011;6268;48.188;17.134;2023-07-24T02:26:49;6.97;;;6.28;;
12407;SDS011;6268;48.188;17.134;2023-07-24T02:30:10;7.13;;;6.53;;
12407;SDS011;6268;48.188;17.134;2023-07-24T02:33:33;7.05;;;6.45;;
12407;SDS011;6268;48.188;17.134;2023-07-24T02:36:55;7.13;;;6.43;;
12407;SDS011;6268;48.188;17.134;2023-07-24T02:40:16;7.07;;;6.47;;
12407;SDS011;6268;48.188;17.134;2023-07-24T02:43:37;7.18;;;6.57;;
12407;SDS011;6268;48.188;17.134;2023-07-24T02:47:00;7.55;;;6.18;;
12407;SDS011;6268;48.188;17.134;2023-07-24T02:50:22;8.07;;;6.47;;
12407;SDS011;6268;48.188;17.134;2023-07-24T02:53:44;6.03;;;5.53;;
12407;SDS011;6268;48.188;17.134;2023-07-24T02:57:05;6.63;;;6.03;;
12407;SDS011;6268;48.188;17.134;2023-07-24T03:00:26;7.35;;;6.75;;
12407;SDS011;6268;48.188;17.134;2023-07-24T03:03:47;9.90;;;6.45;;
12407;SDS011;6268;48.188;17.134;2023-07-24T03:07:10;6.95;;;6.35;;
12407;SDS011;6268;48.188;17.134;2023-07-24T03:10:31;7.15;;;6.53;;
12407;SDS011;6268;48.188;17.134;2023-07-24T03:13:52;9.15;;;7.10;;
12407;SDS011;6268;48.188;17.134;2023-07-24T03:17:15;6.82;;;6.22;;
12407;SDS011;6268;48.188;17.134;2023-07-24T03:20:36;7.35;;;6.65;;
12407;SDS011;6268;48.188;17.134;2023-07-24T03:23:58;6.85;;;6.20;;
12407;SDS011;6268;48.188;17.134;2023-07-24T03:27:19;7.22;;;6.55;;
12407;SDS011;6268;48.188;17.134;2023-07-24T03:30:41;7.35;;;6.50;;
12407;SDS011;6268;48.188;17.134;2023-07-24T03:34:02;7.05;;;6.35;;
12407;SDS011;6268;48.188;17.134;2023-07-24T03:37:23;8.18;;;6.80;;
12407;SDS011;6268;48.188;17.134;2023-07-24T03:40:46;8.15;;;7.30;;
12407;SDS011;6268;48.188;17.134;2023-07-24T03:44:08;6.93;;;6.32;;
12407;SDS011;6268;48.188;17.134;2023-07-24T03:47:30;8.10;;;7.30;;
12407;SDS011;6268;48.188;17.134;2023-07-24T03:50:57;7.40;;;6.80;;
12407;SDS011;6268;48.188;17.134;2023-07-24T03:54:18;7.25;;;6.65;;
12407;SDS011;6268;48.188;17.134;2023-07-24T03:57:41;7.43;;;6.75;;
12407;SDS011;6268;48.188;17.134;2023-07-24T04:01:02;8.30;;;7.43;;
12407;SDS011;6268;48.188;17.134;2023-07-24T04:04:23;7.28;;;6.63;;
12407;SDS011;6268;48.188;17.134;2023-07-24T04:07:45;6.78;;;6.10;;
12407;SDS011;6268;48.188;17.134;2023-07-24T04:11:06;7.22;;;6.65;;
12407;SDS011;6268;48.188;17.134;2023-07-24T04:14:29;7.15;;;6.45;;
12407;SDS011;6268;48.188;17.134;2023-07-24T04:17:50;7.22;;;6.63;;
12407;SDS011;6268;48.188;17.134;2023-07-24T04:21:11;10.00;;;6.90;;
12407;SDS011;6268;48.188;17.134;2023-07-24T04:24:32;7.45;;;6.72;;
12407;SDS011;6268;48.188;17.134;2023-07-24T04:27:53;6.90;;;6.30;;
12407;SDS011;6268;48.188;17.134;2023-07-24T04:31:16;6.90;;;6.20;;
12407;SDS011;6268;48.188;17.134;2023-07-24T04:34:37;7.13;;;6.43;;
12407;SDS011;6268;48.188;17.134;2023-07-24T04:37:59;7.25;;;6.55;;
12407;SDS011;6268;48.188;17.134;2023-07-24T04:41:20;13.82;;;6.53;;
12407;SDS011;6268;48.188;17.134;2023-07-24T04:44:41;8.57;;;6.18;;
12407;SDS011;6268;48.188;17.134;2023-07-24T04:48:04;6.95;;;6.22;;
12407;SDS011;6268;48.188;17.134;2023-07-24T04:51:25;8.63;;;6.53;;
12407;SDS011;6268;48.188;17.134;2023-07-24T04:54:47;7.30;;;6.70;;
12407;SDS011;6268;48.188;17.134;2023-07-24T04:58:08;10.00;;;8.98;;
12407;SDS011;6268;48.188;17.134;2023-07-24T05:01:29;8.77;;;7.18;;
12407;SDS011;6268;48.188;17.134;2023-07-24T05:04:52;8.70;;;7.85;;
12407;SDS011;6268;48.188;17.134;2023-07-24T05:08:15;11.38;;;9.00;;
12407;SDS011;6268;48.188;17.134;2023-07-24T05:11:36;13.23;;;9.43;;
12407;SDS011;6268;48.188;17.134;2023-07-24T05:14:58;9.43;;;8.55;;
12407;SDS011;6268;48.188;17.134;2023-07-24T05:18:19;11.13;;;9.25;;
12407;SDS011;6268;48.188;17.134;2023-07-24T05:21:42;11.30;;;10.20;;
12407;SDS011;6268;48.188;17.134;2023-07-24T05:25:03;12.95;;;11.70;;
12407;SDS011;6268;48.188;17.134;2023-07-24T05:28:25;13.82;;;12.43;;
12407;SDS011;6268;48.188;17.134;2023-07-24T05:31:47;15.15;;;13.50;;
12407;SDS011;6268;48.188;17.134;2023-07-24T05:35:08;16.95;;;14.02;;
12407;SDS011;6268;48.188;17.134;2023-07-24T05:38:32;17.20;;;14.45;;
12407;SDS011;6268;48.188;17.134;2023-07-24T05:41:53;18.20;;;14.50;;
12407;SDS011;6268;48.188;17.134;2023-07-24T05:45:14;16.02;;;14.23;;
12407;SDS011;6268;48.188;17.134;2023-07-24T05:48:36;19.55;;;15.80;;
12407;SDS011;6268;48.188;17.134;2023-07-24T05:51:57;19.58;;;16.83;;
12407;SDS011;6268;48.188;17.134;2023-07-24T05:55:19;22.58;;;18.00;;
12407;SDS011;6268;48.188;17.134;2023-07-24T05:58:41;20.05;;;15.85;;
12407;SDS011;6268;48.188;17.134;2023-07-24T06:02:02;22.55;;;18.08;;
12407;SDS011;6268;48.188;17.134;2023-07-24T06:05:23;22.75;;;18.70;;
12407;SDS011;6268;48.188;17.134;2023-07-24T06:08:45;24.83;;;19.40;;
12407;SDS011;6268;48.188;17.134;2023-07-24T06:12:08;21.40;;;15.95;;
12407;SDS011;6268;48.188;17.134;2023-07-24T06:15:29;19.67;;;17.58;;
12407;SDS011;6268;48.188;17.134;2023-07-24T06:18:51;23.75;;;18.80;;
12407;SDS011;6268;48.188;17.134;2023-07-24T06:22:12;27.90;;;18.30;;
12407;SDS011;6268;48.188;17.134;2023-07-24T06:25:34;21.15;;;17.05;;
12407;SDS011;6268;48.188;17.134;2023-07-24T06:28:57;17.88;;;15.98;;
12407;SDS011;6268;48.188;17.134;2023-07-24T06:32:24;19.25;;;17.13;;
12407;SDS011;6268;48.188;17.134;2023-07-24T06:35:45;21.35;;;17.25;;
12407;SDS011;6268;48.188;17.134;2023-07-24T06:39:06;20.13;;;17.20;;
12407;SDS011;6268;48.188;17.134;2023-07-24T06:42:27;20.83;;;17.90;;
12407;SDS011;6268;48.188;17.134;2023-07-24T06:45:50;20.17;;;17.05;;
12407;SDS011;6268;48.188;17.134;2023-07-24T06:49:11;20.17;;;16.33;;
12407;SDS011;6268;48.188;17.134;2023-07-24T06:52:33;18.05;;;15.15;;
12407;SDS011;6268;48.188;17.134;2023-07-24T06:55:55;19.55;;;15.82;;
12407;SDS011;6268;48.188;17.134;2023-07-24T06:59:16;18.90;;;15.70;;
12407;SDS011;6268;48.188;17.134;2023-07-24T07:02:40;17.63;;;15.60;;
12407;SDS011;6268;48.188;17.134;2023-07-24T07:06:02;23.25;;;15.88;;
12407;SDS011;6268;48.188;17.134;2023-07-24T07:09:24;20.42;;;14.80;;
12407;SDS011;6268;48.188;17.134;2023-07-24T07:12:45;20.02;;;14.75;;
12407;SDS011;6268;48.188;17.134;2023-07-24T07:16:06;18.98;;;14.57;;
12407;SDS011;6268;48.188;17.134;2023-07-24T07:19:29;22.48;;;18.92;;
12407;SDS011;6268;48.188;17.134;2023-07-24T07:22:51;17.35;;;15.38;;
12407;SDS011;6268;48.188;17.134;2023-07-24T07:26:13;17.15;;;12.10;;
12407;SDS011;6268;48.188;17.134;2023-07-24T07:29:34;17.45;;;15.15;;
12407;SDS011;6268;48.188;17.134;2023-07-24T07:32:55;16.48;;;13.55;;
12407;SDS011;6268;48.188;17.134;2023-07-24T07:36:19;16.30;;;13.48;;
12407;SDS011;6268;48.188;17.134;2023-07-24T07:39:40;14.90;;;12.63;;
12407;SDS011;6268;48.188;17.134;2023-07-24T07:43:01;17.50;;;13.95;;
12407;SDS011;6268;48.188;17.134;2023-07-24T07:46:22;12.65;;;9.45;;
12407;SDS011;6268;48.188;17.134;2023-07-24T07:49:44;14.25;;;11.00;;
12407;SDS011;6268;48.188;17.134;2023-07-24T07:53:08;13.15;;;9.15;;
12407;SDS011;6268;48.188;17.134;2023-07-24T07:56:29;13.63;;;11.60;;
12407;SDS011;6268;48.188;17.134;2023-07-24T07:59:50;12.70;;;11.13;;
12407;SDS011;6268;48.188;17.134;2023-07-24T08:03:11;10.45;;;8.15;;
12407;SDS011;6268;48.188;17.134;2023-07-24T08:06:33;10.98;;;8.30;;
12407;SDS011;6268;48.188;17.134;2023-07-24T08:09:55;8.85;;;7.28;;
12407;SDS011;6268;48.188;17.134;2023-07-24T08:13:16;7.65;;;6.93;;
12407;SDS011;6268;48.188;17.134;2023-07-24T08:16:38;7.38;;;6.78;;
12407;SDS011;6268;48.188;17.134;2023-07-24T08:19:59;8.35;;;5.97;;
12407;SDS011;6268;48.188;17.134;2023-07-24T08:23:20;7.07;;;6.40;;
12407;SDS011;6268;48.188;17.134;2023-07-24T08:26:43;6.97;;;6.28;;
12407;SDS011;6268;48.188;17.134;2023-07-24T08:30:24;8.13;;;7.32;;
12407;SDS011;6268;48.188;17.134;2023-07-24T08:33:45;8.25;;;7.55;;
12407;SDS011;6268;48.188;17.134;2023-07-24T08:37:07;9.77;;;6.80;;
12407;SDS011;6268;48.188;17.134;2023-07-24T08:40:28;9.95;;;8.25;;
12407;SDS011;6268;48.188;17.134;2023-07-24T08:43:51;8.73;;;7.53;;
12407;SDS011;6268;48.188;17.134;2023-07-24T08:47:12;8.68;;;7.85;;
12407;SDS011;6268;48.188;17.134;2023-07-24T08:50:36;10.50;;;7.20;;
12407;SDS011;6268;48.188;17.134;2023-07-24T08:53:58;7.28;;;6.68;;
12407;SDS011;6268;48.188;17.134;2023-07-24T08:57:25;6.75;;;6.05;;
12407;SDS011;6268;48.188;17.134;2023-07-24T09:00:47;8.23;;;7.05;;
12407;SDS011;6268;48.188;17.134;2023-07-24T09:04:09;10.10;;;8.93;;
12407;SDS011;6268;48.188;17.134;2023-07-24T09:07:31;10.13;;;7.00;;
12407;SDS011;6268;48.188;17.134;2023-07-24T09:10:58;8.10;;;7.40;;
12407;SDS011;6268;48.188;17.134;2023-07-24T09:14:21;11.10;;;9.25;;
12407;SDS011;6268;48.188;17.134;2023-07-24T09:17:51;9.43;;;8.07;;
12407;SDS011;6268;48.188;17.134;2023-07-24T09:21:28;12.02;;;10.55;;
12407;SDS011;6268;48.188;17.134;2023-07-24T09:24:53;7.20;;;6.22;;
12407;SDS011;6268;48.188;17.134;2023-07-24T09:28:16;8.77;;;8.07;;
12407;SDS011;6268;48.188;17.134;2023-07-24T09:31:38;9.43;;;7.95;;
12407;SDS011;6268;48.188;17.134;2023-07-24T09:35:00;9.65;;;6.00;;
12407;SDS011;6268;48.188;17.134;2023-07-24T09:38:25;13.60;;;12.40;;
12407;SDS011;6268;48.188;17.134;2023-07-24T09:41:50;12.25;;;9.13;;
12407;SDS011;6268;48.188;17.134;2023-07-24T09:45:31;9.07;;;6.90;;
12407;SDS011;6268;48.188;17.134;2023-07-24T09:48:54;8.77;;;6.72;;
12407;SDS011;6268;48.188;17.134;2023-07-24T09:52:19;8.30;;;7.60;;
12407;SDS011;6268;48.188;17.134;2023-07-24T09:55:47;8.15;;;7.32;;
12407;SDS011;6268;48.188;17.134;2023-07-24T09:59:20;9.65;;;8.32;;
12407;SDS011;6268;48.188;17.134;2023-07-24T10:02:43;9.07;;;7.75;;
12407;SDS011;6268;48.188;17.134;2023-07-24T10:06:09;9.27;;;7.63;;
12407;SDS011;6268;48.188;17.134;2023-07-24T10:09:33;14.70;;;7.35;;
12407;SDS011;6268;48.188;17.134;2023-07-24T10:12:58;68.72;;;13.02;;
12407;SDS011;6268;48.188;17.134;2023-07-24T10:16:20;7.97;;;7.18;;
12407;SDS011;6268;48.188;17.134;2023-07-24T10:19:45;9.45;;;6.88;;
12407;SDS011;6268;48.188;17.134;2023-07-24T10:23:08;7.20;;;6.47;;
12407;SDS011;6268;48.188;17.134;2023-07-24T10:26:33;9.48;;;7.75;;
12407;SDS011;6268;48.188;17.134;2023-07-24T10:29:59;8.35;;;7.20;;
12407;SDS011;6268;48.188;17.134;2023-07-24T10:33:23;9.30;;;8.40;;
12407;SDS011;6268;48.188;17.134;2023-07-24T10:36:44;12.45;;;9.02;;
12407;SDS011;6268;48.188;17.134;2023-07-24T10:40:06;11.95;;;8.45;;
12407;SDS011;6268;48.188;17.134;2023-07-24T10:43:41;17.13;;;8.25;;
12407;SDS011;6268;48.188;17.134;2023-07-24T10:47:04;11.15;;;7.72;;
12407;SDS011;6268;48.188;17.134;2023-07-24T10:50:25;41.15;;;8.57;;
12407;SDS011;6268;48.188;17.134;2023-07-24T10:53:59;9.48;;;7.57;;
12407;SDS011;6268;48.188;17.134;2023-07-24T10:57:25;9.98;;;8.02;;
12407;SDS011;6268;48.188;17.134;2023-07-24T11:00:48;11.75;;;7.90;;
12407;SDS011;6268;48.188;17.134;2023-07-24T11:04:09;9.60;;;8.07;;
12407;SDS011;6268;48.188;17.134;2023-07-24T11:07:32;8.85;;;7.40;;
12407;SDS011;6268;48.188;17.134;2023-07-24T11:10:54;8.30;;;6.85;;
12407;SDS011;6268;48.188;17.134;2023-07-24T11:14:18;11.32;;;10.20;;
12407;SDS011;6268;48.188;17.134;2023-07-24T11:17:42;15.10;;;13.60;;
12407;SDS011;6268;48.188;17.134;2023-07-24T11:21:20;20.55;;;7.88;;
12407;SDS011;6268;48.188;17.134;2023-07-24T11:24:43;24.30;;;8.82;;
12407;SDS011;6268;48.188;17.134;2023-07-24T11:28:06;14.98;;;8.05;;
12407;SDS011;6268;48.188;17.134;2023-07-24T11:31:36;20.77;;;8.57;;
12407;SDS011;6268;48.188;17.134;2023-07-24T11:34:59;28.52;;;7.65;;
12407;SDS011;6268;48.188;17.134;2023-07-24T11:38:21;19.13;;;10.40;;
12407;SDS011;6268;48.188;17.134;2023-07-24T11:41:49;11.70;;;10.35;;
12407;SDS011;6268;48.188;17.134;2023-07-24T11:45:11;12.75;;;8.52;;
12407;SDS011;6268;48.188;17.134;2023-07-24T11:48:33;15.63;;;8.10;;
12407;SDS011;6268;48.188;17.134;2023-07-24T11:52:04;10.75;;;6.68;;
12407;SDS011;6268;48.188;17.134;2023-07-24T11:55:30;9.68;;;6.82;;
12407;SDS011;6268;48.188;17.134;2023-07-24T11:58:52;13.73;;;7.55;;
12407;SDS011;6268;48.188;17.134;2023-07-24T12:02:14;8.75;;;6.40;;
12407;SDS011;6268;48.188;17.134;2023-07-24T12:05:39;9.43;;;8.13;;
12407;SDS011;6268;48.188;17.134;2023-07-24T12:09:03;8.00;;;7.30;;
12407;SDS011;6268;48.188;17.134;2023-07-24T12:12:25;9.95;;;8.07;;
12407;SDS011;6268;48.188;17.134;2023-07-24T12:15:58;19.75;;;7.95;;
12407;SDS011;6268;48.188;17.134;2023-07-24T12:19:28;13.02;;;8.52;;
12407;SDS011;6268;48.188;17.134;2023-07-24T12:22:49;8.68;;;7.40;;
12407;SDS011;6268;48.188;17.134;2023-07-24T12:26:12;25.00;;;7.78;;
12407;SDS011;6268;48.188;17.134;2023-07-24T12:29:33;8.75;;;5.93;;
12407;SDS011;6268;48.188;17.134;2023-07-24T12:32:54;14.13;;;7.75;;
12407;SDS011;6268;48.188;17.134;2023-07-24T12:36:16;9.27;;;8.48;;
12407;SDS011;6268;48.188;17.134;2023-07-24T12:39:37;11.52;;;8.43;;
12407;SDS011;6268;48.188;17.134;2023-07-24T12:42:59;9.40;;;8.48;;
12407;SDS011;6268;48.188;17.134;2023-07-24T12:46:21;12.82;;;8.48;;
12407;SDS011;6268;48.188;17.134;2023-07-24T12:49:42;8.60;;;7.10;;
12407;SDS011;6268;48.188;17.134;2023-07-24T12:53:03;16.38;;;8.52;;
12407;SDS011;6268;48.188;17.134;2023-07-24T12:56:42;16.25;;;6.55;;
12407;SDS011;6268;48.188;17.134;2023-07-24T13:00:05;10.30;;;8.35;;
12407;SDS011;6268;48.188;17.134;2023-07-24T13:03:27;11.32;;;7.25;;
12407;SDS011;6268;48.188;17.134;2023-07-24T13:06:50;13.40;;;6.65;;
12407;SDS011;6268;48.188;17.134;2023-07-24T13:10:12;33.65;;;9.02;;
12407;SDS011;6268;48.188;17.134;2023-07-24T13:13:33;10.80;;;7.55;;
12407;SDS011;6268;48.188;17.134;2023-07-24T13:16:56;9.38;;;7.22;;
12407;SDS011;6268;48.188;17.134;2023-07-24T13:20:17;10.50;;;7.70;;
12407;SDS011;6268;48.188;17.134;2023-07-24T13:23:38;13.82;;;8.02;;
12407;SDS011;6268;48.188;17.134;2023-07-24T13:27:00;11.52;;;7.57;;
12407;SDS011;6268;48.188;17.134;2023-07-24T13:30:21;13.18;;;8.38;;
12407;SDS011;6268;48.188;17.134;2023-07-24T13:33:44;11.07;;;9.50;;
12407;SDS011;6268;48.188;17.134;2023-07-24T13:37:06;38.20;;;11.38;;
12407;SDS011;6268;48.188;17.134;2023-07-24T13:40:27;17.45;;;8.45;;
12407;SDS011;6268;48.188;17.134;2023-07-24T13:43:48;11.10;;;9.27;;
12407;SDS011;6268;48.188;17.134;2023-07-24T13:47:10;18.50;;;8.70;;
12407;SDS011;6268;48.188;17.134;2023-07-24T13:50:34;18.48;;;10.05;;
12407;SDS011;6268;48.188;17.134;2023-07-24T13:53:55;17.02;;;10.00;;
12407;SDS011;6268;48.188;17.134;2023-07-24T13:57:17;11.73;;;8.75;;
12407;SDS011;6268;48.188;17.134;2023-07-24T14:00:38;11.43;;;9.73;;
12407;SDS011;6268;48.188;17.134;2023-07-24T14:04:00;24.85;;;11.60;;
12407;SDS011;6268;48.188;17.134;2023-07-24T14:07:22;10.20;;;9.20;;
12407;SDS011;6268;48.188;17.134;2023-07-24T14:10:44;11.98;;;8.32;;
12407;SDS011;6268;48.188;17.134;2023-07-24T14:14:05;25.83;;;10.15;;
12407;SDS011;6268;48.188;17.134;2023-07-24T14:17:26;16.55;;;10.50;;
12407;SDS011;6268;48.188;17.134;2023-07-24T14:20:47;15.98;;;10.57;;
12407;SDS011;6268;48.188;17.134;2023-07-24T14:24:10;14.02;;;9.32;;
12407;SDS011;6268;48.188;17.134;2023-07-24T14:27:32;12.07;;;10.85;;
12407;SDS011;6268;48.188;17.134;2023-07-24T14:30:53;18.98;;;11.63;;
12407;SDS011;6268;48.188;17.134;2023-07-24T14:34:14;17.48;;;11.38;;
12407;SDS011;6268;48.188;17.134;2023-07-24T14:37:36;16.20;;;11.73;;
12407;SDS011;6268;48.188;17.134;2023-07-24T14:40:58;15.18;;;12.98;;
12407;SDS011;6268;48.188;17.134;2023-07-24T14:44:19;21.92;;;19.63;;
12407;SDS011;6268;48.188;17.134;2023-07-24T14:47:41;13.90;;;12.45;;
12407;SDS011;6268;48.188;17.134;2023-07-24T14:51:02;13.68;;;10.20;;
12407;SDS011;6268;48.188;17.134;2023-07-24T14:54:23;15.75;;;12.00;;
12407;SDS011;6268;48.188;17.134;2023-07-24T14:57:46;16.35;;;10.80;;
12407;SDS011;6268;48.188;17.134;2023-07-24T15:01:08;15.50;;;10.07;;
12407;SDS011;6268;48.188;17.134;2023-07-24T15:04:30;18.15;;;9.70;;
12407;SDS011;6268;48.188;17.134;2023-07-24T15:07:53;12.43;;;10.02;;
12407;SDS011;6268;48.188;17.134;2023-07-24T15:11:15;13.13;;;10.15;;
12407;SDS011;6268;48.188;17.134;2023-07-24T15:14:37;15.70;;;9.75;;
12407;SDS011;6268;48.188;17.134;2023-07-24T15:17:59;19.25;;;10.40;;
12407;SDS011;6268;48.188;17.134;2023-07-24T15:21:20;16.80;;;11.65;;
12407;SDS011;6268;48.188;17.134;2023-07-24T15:24:41;20.13;;;9.95;;
12407;SDS011;6268;48.188;17.134;2023-07-24T15:28:02;14.90;;;10.15;;
12407;SDS011;6268;48.188;17.134;2023-07-24T15:31:25;13.00;;;11.55;;
12407;SDS011;6268;48.188;17.134;2023-07-24T15:34:46;18.17;;;13.25;;
12407;SDS011;6268;48.188;17.134;2023-07-24T15:38:08;19.90;;;13.40;;
12407;SDS011;6268;48.188;17.134;2023-07-24T15:41:29;15.13;;;13.32;;
12407;SDS011;6268;48.188;17.134;2023-07-24T15:44:50;13.35;;;11.73;;
12407;SDS011;6268;48.188;17.134;2023-07-24T15:48:13;13.50;;;9.73;;
12407;SDS011;6268;48.188;17.134;2023-07-24T15:51:34;15.75;;;11.68;;
12407;SDS011;6268;48.188;17.134;2023-07-24T15:54:56;13.48;;;12.18;;
12407;SDS011;6268;48.188;17.134;2023-07-24T15:58:17;13.48;;;12.18;;
12407;SDS011;6268;48.188;17.134;2023-07-24T16:01:38;13.55;;;11.93;;
12407;SDS011;6268;48.188;17.134;2023-07-24T16:05:01;13.55;;;11.48;;
12407;SDS011;6268;48.188;17.134;2023-07-24T16:08:24;15.80;;;10.52;;
12407;SDS011;6268;48.188;17.134;2023-07-24T16:11:45;15.07;;;12.60;;
12407;SDS011;6268;48.188;17.134;2023-07-24T16:15:07;17.52;;;12.05;;
12407;SDS011;6268;48.188;17.134;2023-07-24T16:18:29;15.18;;;12.38;;
12407;SDS011;6268;48.188;17.134;2023-07-24T16:21:52;14.93;;;12.70;;
12407;SDS011;6268;48.188;17.134;2023-07-24T16:25:14;14.75;;;13.05;;
12407;SDS011;6268;48.188;17.134;2023-07-24T16:28:35;19.77;;;11.45;;
12407;SDS011;6268;48.188;17.134;2023-07-24T16:31:58;15.95;;;12.13;;
12407;SDS011;6268;48.188;17.134;2023-07-24T16:35:20;14.30;;;12.80;;
12407;SDS011;6268;48.188;17.134;2023-07-24T16:38:42;14.05;;;12.52;;
12407;SDS011;6268;48.188;17.134;2023-07-24T16:42:05;18.05;;;12.77;;
12407;SDS011;6268;48.188;17.134;2023-07-24T16:45:27;15.50;;;13.18;;
12407;SDS011;6268;48.188;17.134;2023-07-24T16:48:51;14.35;;;11.80;;
12407;SDS011;6268;48.188;17.134;2023-07-24T16:52:12;13.32;;;11.93;;
12407;SDS011;6268;48.188;17.134;2023-07-24T16:55:34;18.10;;;11.95;;
12407;SDS011;6268;48.188;17.134;2023-07-24T16:58:56;17.08;;;13.20;;
12407;SDS011;6268;48.188;17.134;2023-07-24T17:02:17;14.75;;;12.57;;
12407;SDS011;6268;48.188;17.134;2023-07-24T17:05:38;19.45;;;17.45;;
12407;SDS011;6268;48.188;17.134;2023-07-24T17:09:00;15.57;;;12.68;;
12407;SDS011;6268;48.188;17.134;2023-07-24T17:12:22;20.92;;;18.77;;
12407;SDS011;6268;48.188;17.134;2023-07-24T17:15:44;35.80;;;27.48;;
12407;SDS011;6268;48.188;17.134;2023-07-24T17:19:05;29.63;;;22.52;;
12407;SDS011;6268;48.188;17.134;2023-07-24T17:22:26;22.38;;;17.13;;
12407;SDS011;6268;48.188;17.134;2023-07-24T17:25:48;20.52;;;18.33;;
12407;SDS011;6268;48.188;17.134;2023-07-24T17:29:10;21.50;;;18.38;;
12407;SDS011;6268;48.188;17.134;2023-07-24T17:32:32;21.23;;;15.32;;
12407;SDS011;6268;48.188;17.134;2023-07-24T17:35:53;19.52;;;15.73;;
12407;SDS011;6268;48.188;17.134;2023-07-24T17:39:15;19.02;;;14.75;;
12407;SDS011;6268;48.188;17.134;2023-07-24T17:42:36;16.40;;;13.52;;
12407;SDS011;6268;48.188;17.134;2023-07-24T17:45:59;16.40;;;14.65;;
12407;SDS011;6268;48.188;17.134;2023-07-24T17:49:20;14.73;;;12.40;;
12407;SDS011;6268;48.188;17.134;2023-07-24T17:52:41;13.48;;;12.07;;
12407;SDS011;6268;48.188;17.134;2023-07-24T17:56:03;15.85;;;12.13;;
12407;SDS011;6268;48.188;17.134;2023-07-24T17:59:24;12.57;;;11.30;;
12407;SDS011;6268;48.188;17.134;2023-07-24T18:02:49;13.25;;;10.90;;
12407;SDS011;6268;48.188;17.134;2023-07-24T18:06:11;18.25;;;11.80;;
12407;SDS011;6268;48.188;17.134;2023-07-24T18:09:32;14.38;;;11.52;;
12407;SDS011;6268;48.188;17.134;2023-07-24T18:12:53;13.98;;;9.23;;
12407;SDS011;6268;48.188;17.134;2023-07-24T18:16:15;15.52;;;9.52;;
12407;SDS011;6268;48.188;17.134;2023-07-24T18:19:36;11.00;;;9.75;;
12407;SDS011;6268;48.188;17.134;2023-07-24T18:22:57;12.77;;;10.55;;
12407;SDS011;6268;48.188;17.134;2023-07-24T18:26:19;13.48;;;10.95;;
12407;SDS011;6268;48.188;17.134;2023-07-24T18:29:40;12.75;;;10.95;;
12407;SDS011;6268;48.188;17.134;2023-07-24T18:33:01;16.73;;;11.30;;
12407;SDS011;6268;48.188;17.134;2023-07-24T18:36:24;11.05;;;9.95;;
12407;SDS011;6268;48.188;17.134;2023-07-24T18:39:45;14.00;;;10.50;;
12407;SDS011;6268;48.188;17.134;2023-07-24T18:43:06;14.70;;;9.30;;
12407;SDS011;6268;48.188;17.134;2023-07-24T18:46:27;10.55;;;9.55;;
12407;SDS011;6268;48.188;17.134;2023-07-24T18:49:48;14.82;;;10.70;;
12407;SDS011;6268;48.188;17.134;2023-07-24T18:53:12;10.27;;;8.73;;
12407;SDS011;6268;48.188;17.134;2023-07-24T18:56:33;14.45;;;9.90;;
12407;SDS011;6268;48.188;17.134;2023-07-24T18:59:55;16.52;;;8.40;;
12407;SDS011;6268;48.188;17.134;2023-07-24T19:03:16;10.80;;;7.13;;
12407;SDS011;6268;48.188;17.134;2023-07-24T19:06:38;16.80;;;8.00;;
12407;SDS011;6268;48.188;17.134;2023-07-24T19:10:00;14.55;;;5.97;;
12407;SDS011;6268;48.188;17.134;2023-07-24T19:13:21;10.05;;;5.20;;
12407;SDS011;6268;48.188;17.134;2023-07-24T19:16:43;10.85;;;5.72;;
12407;SDS011;6268;48.188;17.134;2023-07-24T19:20:07;11.25;;;5.60;;
12407;SDS011;6268;48.188;17.134;2023-07-24T19:23:31;7.65;;;5.18;;
12407;SDS011;6268;48.188;17.134;2023-07-24T19:26:54;9.55;;;5.20;;
12407;SDS011;6268;48.188;17.134;2023-07-24T19:30:15;10.32;;;4.80;;
12407;SDS011;6268;48.188;17.134;2023-07-24T19:33:36;6.72;;;4.10;;
12407;SDS011;6268;48.188;17.134;2023-07-24T19:36:58;9.82;;;4.57;;
12407;SDS011;6268;48.188;17.134;2023-07-24T19:40:19;9.30;;;6.82;;
12407;SDS011;6268;48.188;17.134;2023-07-24T19:43:42;7.10;;;5.30;;
12407;SDS011;6268;48.188;17.134;2023-07-24T19:47:03;3.75;;;3.15;;
12407;SDS011;6268;48.188;17.134;2023-07-24T19:50:25;4.88;;;3.13;;
12407;SDS011;6268;48.188;17.134;2023-07-24T19:53:46;5.40;;;3.35;;
12407;SDS011;6268;48.188;17.134;2023-07-24T19:57:08;7.80;;;3.25;;
12407;SDS011;6268;48.188;17.134;2023-07-24T20:00:36;7.75;;;2.72;;
12407;SDS011;6268;48.188;17.134;2023-07-24T20:03:58;2.85;;;2.65;;